Time;durP1;ratioP1;P1;durP2;ratioP2;P2;SDS_P1;SDS_P2;PMS_P1;PMS_P2;Temp;Humidity;BMP_temperature;BMP_pressure;BME280_temperature;BME280_humidity;BME280_pressure;Samples;Min_cycle;Max_cycle;Signal;HPM_P1;HPM_P2
2023/05/04 00:02:02;;;;;;;12.03;8.60;;;10.00;99.90;;;;;;5035262;28;20747;-78
2023/05/04 00:04:27;;;;;;;10.63;8.90;;;9.90;99.90;;;;;;5053011;28;20278;-78
2023/05/04 00:06:53;;;;;;;11.00;8.27;;;9.90;99.90;;;;;;5052808;28;20546;-78
2023/05/04 00:09:18;;;;;;;13.40;9.37;;;9.90;99.90;;;;;;5052393;28;20198;-77
2023/05/04 00:11:44;;;;;;;15.03;9.33;;;9.80;99.90;;;;;;5033968;28;20217;-78
2023/05/04 00:14:10;;;;;;;11.87;9.10;;;9.80;99.90;;;;;;5051707;28;20276;-77
2023/05/04 00:16:35;;;;;;;11.63;8.80;;;10.00;99.90;;;;;;5033637;28;20195;-78
2023/05/04 00:19:01;;;;;;;14.10;10.80;;;10.10;99.90;;;;;;5049933;28;20978;-78
2023/05/04 00:21:27;;;;;;;12.43;9.73;;;10.10;99.90;;;;;;5049910;28;20193;-74
2023/05/04 00:23:52;;;;;;;13.70;10.60;;;10.20;99.90;;;;;;5049788;28;20212;-77
2023/05/04 00:26:18;;;;;;;11.80;10.37;;;10.20;99.90;;;;;;5032810;28;20669;-76
2023/05/04 00:28:44;;;;;;;15.30;10.60;;;10.40;99.90;;;;;;5049447;28;20208;-76
2023/05/04 00:31:09;;;;;;;14.80;10.57;;;10.70;99.90;;;;;;5051014;28;20183;-76
2023/05/04 00:33:35;;;;;;;14.93;10.10;;;10.60;99.90;;;;;;5051158;28;20960;-76
2023/05/04 00:36:04;;;;;;;12.67;10.80;;;10.70;99.90;;;;;;5051502;28;20173;-77
2023/05/04 00:38:30;;;;;;;15.40;11.43;;;10.70;99.90;;;;;;5050831;28;20221;-78
2023/05/04 00:40:57;;;;;;;17.10;10.70;;;10.70;99.90;;;;;;5033841;28;21009;-78
2023/05/04 00:43:24;;;;;;;12.90;10.87;;;10.80;99.90;;;;;;5050759;28;20235;-78
2023/05/04 00:45:50;;;;;;;13.87;11.70;;;10.70;99.90;;;;;;5050690;28;20476;-77
2023/05/04 00:48:15;;;;;;;16.57;12.67;;;10.80;99.90;;;;;;5050630;28;20436;-78
2023/05/04 00:50:41;;;;;;;15.77;12.30;;;10.90;99.90;;;;;;5050034;28;20911;-76
2023/05/04 00:53:09;;;;;;;19.13;12.40;;;10.90;99.90;;;;;;5051149;28;20187;-77
2023/05/04 00:55:41;;;;;;;19.77;13.60;;;10.90;99.90;;;;;;5051710;28;20532;-77
2023/05/04 00:58:08;;;;;;;18.40;13.23;;;11.10;99.90;;;;;;5049897;28;20460;-78
2023/05/04 01:00:34;;;;;;;19.03;13.77;;;11.10;99.90;;;;;;5051035;28;20848;-76
2023/05/04 01:03:00;;;;;;;18.20;14.20;;;11.10;99.90;;;;;;5051297;28;20431;-78
2023/05/04 01:05:33;;;;;;;19.30;13.70;;;11.20;99.90;;;;;;5051016;28;20928;-78
2023/05/04 01:08:14;;;;;;;19.50;14.90;;;11.30;99.90;;;;;;5051731;28;20203;-77
2023/05/04 01:11:14;;;;;;;19.53;14.77;;;11.20;99.90;;;;;;5033085;28;20420;-78
2023/05/04 01:13:41;;;;;;;20.20;14.83;;;11.30;99.90;;;;;;5051210;28;21224;-80
2023/05/04 01:16:07;;;;;;;22.47;13.70;;;11.30;99.90;;;;;;5032969;28;20490;-78
2023/05/04 01:18:33;;;;;;;18.70;14.27;;;11.40;99.90;;;;;;5050771;28;20949;-78
2023/05/04 01:20:59;;;;;;;23.37;16.30;;;11.30;99.90;;;;;;5048960;28;20426;-78
2023/05/04 01:23:25;;;;;;;20.20;14.83;;;11.30;99.90;;;;;;5050768;28;20193;-78
2023/05/04 01:26:03;;;;;;;21.47;15.50;;;11.50;99.90;;;;;;5050221;28;20218;-78
2023/05/04 01:28:50;;;;;;;21.60;16.10;;;11.30;99.90;;;;;;5049092;28;20445;-78
2023/05/04 01:31:22;;;;;;;17.73;15.30;;;11.30;99.90;;;;;;5050235;28;20416;-78
2023/05/04 01:33:50;;;;;;;22.83;16.57;;;11.40;99.90;;;;;;5050492;28;20441;-77
2023/05/04 01:36:17;;;;;;;21.13;15.60;;;11.30;99.90;;;;;;5032814;28;20425;-78
2023/05/04 01:38:45;;;;;;;22.50;16.90;;;11.20;99.90;;;;;;5048407;28;21098;-77
2023/05/04 01:41:11;;;;;;;19.17;16.30;;;11.10;99.90;;;;;;5048798;28;20906;-77
2023/05/04 01:43:37;;;;;;;22.70;16.40;;;11.10;99.90;;;;;;5048181;28;20416;-76
2023/05/04 01:46:02;;;;;;;19.70;15.33;;;11.00;99.90;;;;;;5048531;28;20737;-76
2023/05/04 01:48:28;;;;;;;20.33;14.83;;;11.10;99.90;;;;;;5047924;28;20211;-77
2023/05/04 01:50:54;;;;;;;22.53;16.50;;;10.90;99.90;;;;;;5049538;28;20264;-78
2023/05/04 01:53:20;;;;;;;19.40;15.40;;;10.80;99.90;;;;;;5049569;28;20194;-76
2023/05/04 01:55:45;;;;;;;20.57;16.10;;;10.90;99.90;;;;;;5031558;28;20440;-78
2023/05/04 01:58:11;;;;;;;21.40;15.40;;;10.60;99.90;;;;;;5031231;28;20689;-76
2023/05/04 02:00:36;;;;;;;21.50;16.70;;;10.50;99.90;;;;;;5047994;28;20186;-77
2023/05/04 02:03:02;;;;;;;20.40;16.97;;;10.50;99.90;;;;;;5048049;28;20182;-77
2023/05/04 02:05:28;;;;;;;20.97;16.27;;;10.60;99.90;;;;;;5047677;28;20217;-77
2023/05/04 02:07:53;;;;;;;27.50;17.27;;;10.80;99.90;;;;;;5049192;28;20713;-77
2023/05/04 02:10:19;;;;;;;23.87;15.90;;;10.60;99.90;;;;;;5031557;28;20187;-77
2023/05/04 02:12:45;;;;;;;19.17;15.03;;;10.70;99.90;;;;;;5047908;28;20267;-77
2023/05/04 02:15:10;;;;;;;23.80;16.17;;;10.90;99.90;;;;;;5031278;28;20197;-78
2023/05/04 02:17:36;;;;;;;20.10;15.90;;;10.70;99.90;;;;;;5049555;28;20971;-77
2023/05/04 02:20:03;;;;;;;24.30;16.87;;;10.80;99.90;;;;;;5031264;28;20193;-77
2023/05/04 02:22:28;;;;;;;21.07;14.97;;;10.80;99.90;;;;;;5047848;28;20260;-77
2023/05/04 02:24:54;;;;;;;23.90;16.43;;;10.80;99.90;;;;;;5031339;28;20846;-77
2023/05/04 02:27:19;;;;;;;22.57;15.40;;;10.80;99.90;;;;;;5049087;28;20208;-77
2023/05/04 02:29:45;;;;;;;21.13;15.43;;;10.80;99.90;;;;;;5049123;28;20190;-77
2023/05/04 02:32:11;;;;;;;23.47;16.50;;;10.80;99.90;;;;;;5031188;28;20186;-77
2023/05/04 02:34:36;;;;;;;22.60;15.27;;;10.80;99.90;;;;;;5047671;28;20203;-75
2023/05/04 02:37:03;;;;;;;24.03;17.20;;;10.90;99.90;;;;;;5047432;28;20185;-76
2023/05/04 02:39:28;;;;;;;21.50;17.07;;;10.90;99.90;;;;;;5049179;28;20224;-76
2023/05/04 02:41:54;;;;;;;26.30;18.03;;;10.80;99.90;;;;;;5049876;28;20520;-77
2023/05/04 02:44:19;;;;;;;21.97;16.17;;;10.90;99.90;;;;;;5048450;28;20685;-76
2023/05/04 02:46:45;;;;;;;25.50;17.60;;;10.70;99.90;;;;;;5047989;28;20180;-77
2023/05/04 02:49:10;;;;;;;23.33;16.87;;;10.90;99.90;;;;;;5048019;28;20626;-77
2023/05/04 02:51:36;;;;;;;28.93;18.83;;;10.80;99.90;;;;;;5047983;28;20218;-76
2023/05/04 02:54:02;;;;;;;24.07;18.43;;;10.80;99.90;;;;;;5049736;28;20189;-77
2023/05/04 02:56:27;;;;;;;24.70;19.10;;;10.90;99.90;;;;;;5049849;28;20186;-77
2023/05/04 02:58:53;;;;;;;25.40;18.20;;;10.70;99.90;;;;;;5053429;28;20708;-76
2023/05/04 03:01:18;;;;;;;25.47;17.70;;;10.90;99.90;;;;;;5035842;28;20265;-76
2023/05/04 03:03:44;;;;;;;29.13;20.03;;;10.80;99.90;;;;;;5052402;28;20252;-76
2023/05/04 03:06:10;;;;;;;28.77;19.53;;;10.70;99.90;;;;;;5052340;28;20243;-76
2023/05/04 03:08:36;;;;;;;25.93;19.67;;;10.70;99.90;;;;;;5053588;28;20463;-77
2023/05/04 03:11:01;;;;;;;27.87;19.30;;;10.70;99.90;;;;;;5052035;28;20179;-76
2023/05/04 03:13:27;;;;;;;24.73;18.90;;;10.70;99.90;;;;;;5053124;28;20192;-76
2023/05/04 03:15:52;;;;;;;26.37;19.60;;;10.60;99.90;;;;;;5053291;28;20206;-77
2023/05/04 03:18:18;;;;;;;28.93;18.10;;;10.60;99.90;;;;;;5053353;28;20269;-77
2023/05/04 03:20:44;;;;;;;30.23;19.63;;;10.50;99.90;;;;;;5053154;28;20240;-77
2023/05/04 03:23:10;;;;;;;31.03;20.27;;;10.50;99.90;;;;;;5053211;28;20547;-76
2023/05/04 03:25:35;;;;;;;32.13;18.80;;;10.50;99.90;;;;;;5052570;28;20456;-77
2023/05/04 03:28:01;;;;;;;25.70;18.33;;;10.40;99.90;;;;;;5051386;28;20212;-77
2023/05/04 03:30:26;;;;;;;28.17;20.90;;;10.50;99.90;;;;;;5051644;28;20209;-78
2023/05/04 03:32:52;;;;;;;28.07;17.67;;;10.40;99.90;;;;;;5051106;28;20214;-77
2023/05/04 03:35:18;;;;;;;25.60;19.10;;;10.30;99.90;;;;;;5050884;28;20188;-78
2023/05/04 03:37:43;;;;;;;24.97;19.77;;;10.30;99.90;;;;;;5050345;28;20586;-77
2023/05/04 03:40:09;;;;;;;26.07;16.57;;;10.00;99.90;;;;;;5050692;28;20561;-77
2023/05/04 03:42:36;;;;;;;28.60;18.57;;;10.10;99.90;;;;;;5050101;28;20631;-78
2023/05/04 03:45:02;;;;;;;27.73;19.67;;;10.10;99.90;;;;;;5033954;28;20463;-77
2023/05/04 03:47:28;;;;;;;24.93;18.27;;;9.90;99.90;;;;;;5050376;28;20505;-78
2023/05/04 03:49:54;;;;;;;28.20;18.93;;;9.80;99.90;;;;;;5050406;28;20489;-76
2023/05/04 03:52:19;;;;;;;26.20;18.63;;;9.70;99.90;;;;;;5033848;28;20194;-76
2023/05/04 03:54:45;;;;;;;26.80;18.10;;;9.60;99.90;;;;;;5050013;28;20658;-76
2023/05/04 03:57:10;;;;;;;26.23;17.80;;;9.50;99.90;;;;;;5050159;28;20180;-76
2023/05/04 03:59:36;;;;;;;27.00;19.73;;;9.50;99.90;;;;;;5049994;28;20220;-76
2023/05/04 04:02:01;;;;;;;25.27;18.30;;;9.40;99.90;;;;;;5050393;28;20268;-77
2023/05/04 04:04:27;;;;;;;28.13;18.67;;;9.40;99.90;;;;;;5052547;28;20215;-77
2023/05/04 04:06:52;;;;;;;30.97;19.80;;;9.40;99.90;;;;;;5051079;28;20283;-77
2023/05/04 04:09:18;;;;;;;26.33;18.87;;;9.30;99.90;;;;;;5051768;28;20233;-78
2023/05/04 04:11:44;;;;;;;25.10;18.30;;;9.30;99.90;;;;;;5050908;28;20660;-77
2023/05/04 04:14:10;;;;;;;28.47;19.40;;;9.20;99.90;;;;;;5051412;28;20192;-77
2023/05/04 04:16:36;;;;;;;27.43;19.77;;;9.20;99.90;;;;;;5050989;28;20329;-77
2023/05/04 04:19:01;;;;;;;26.83;19.57;;;9.20;99.90;;;;;;5051279;28;20525;-76
2023/05/04 04:21:27;;;;;;;32.90;20.30;;;9.20;99.90;;;;;;5050987;28;20198;-77
2023/05/04 04:23:53;;;;;;;25.33;19.13;;;9.20;99.90;;;;;;5053673;28;20187;-78
2023/05/04 04:26:20;;;;;;;25.60;18.87;;;9.20;99.90;;;;;;5055541;28;20202;-77
2023/05/04 04:28:49;;;;;;;22.43;17.93;;;9.20;99.90;;;;;;5056021;28;20685;-78
2023/05/04 04:31:19;;;;;;;26.23;17.70;;;9.10;99.90;;;;;;5039112;28;20419;-75
2023/05/04 04:33:46;;;;;;;25.93;19.83;;;9.10;99.90;;;;;;5055640;28;20925;-77
2023/05/04 04:36:15;;;;;;;25.50;18.27;;;9.10;99.90;;;;;;5053918;28;20426;-77
2023/05/04 04:38:41;;;;;;;28.30;19.20;;;9.10;99.90;;;;;;5053407;28;20541;-77
2023/05/04 04:41:07;;;;;;;26.57;18.30;;;9.10;99.90;;;;;;5035578;28;20441;-77
2023/05/04 04:43:33;;;;;;;25.00;19.40;;;9.20;99.90;;;;;;5052337;28;20427;-76
2023/05/04 04:45:58;;;;;;;31.10;19.47;;;9.10;99.90;;;;;;5051484;28;20275;-76
2023/05/04 04:48:24;;;;;;;25.40;18.43;;;9.30;99.90;;;;;;5051160;28;20442;-77
2023/05/04 04:50:51;;;;;;;25.10;18.40;;;9.10;99.90;;;;;;5052477;28;20211;-77
2023/05/04 04:53:16;;;;;;;27.67;18.87;;;9.00;99.90;;;;;;5052466;28;20461;-77
2023/05/04 04:55:42;;;;;;;31.20;20.60;;;9.00;99.90;;;;;;5051502;28;20875;-77
2023/05/04 04:58:08;;;;;;;33.37;19.90;;;9.00;99.90;;;;;;5049754;28;20239;-77
2023/05/04 05:00:34;;;;;;;37.00;23.20;;;9.00;99.90;;;;;;5049318;28;20271;-77
2023/05/04 05:03:01;;;;;;;75.93;42.93;;;9.00;99.90;;;;;;5031999;28;20445;-76
2023/05/04 05:05:27;;;;;;;55.60;30.50;;;9.10;99.90;;;;;;5048156;28;20465;-77
2023/05/04 05:07:52;;;;;;;50.43;30.17;;;9.10;99.90;;;;;;5048380;28;20519;-77
2023/05/04 05:10:19;;;;;;;37.60;23.63;;;9.10;99.90;;;;;;5031731;28;20187;-76
2023/05/04 05:12:45;;;;;;;38.60;24.90;;;9.20;99.90;;;;;;5050086;28;20176;-77
2023/05/04 05:15:11;;;;;;;56.73;34.50;;;9.30;99.90;;;;;;5048242;28;20433;-76
2023/05/04 05:17:37;;;;;;;64.20;37.77;;;9.40;99.90;;;;;;5048386;28;20458;-77
2023/05/04 05:20:09;;;;;;;24.37;15.13;;;9.50;99.90;;;;;;5048271;28;20227;-77
2023/05/04 05:22:35;;;;;;;33.53;22.10;;;9.70;99.90;;;;;;5049485;28;20192;-77
2023/05/04 05:25:01;;;;;;;35.77;24.20;;;9.90;99.90;;;;;;5049691;28;20469;-77
2023/05/04 05:27:28;;;;;;;37.07;20.93;;;10.10;99.90;;;;;;5049865;28;21026;-77
2023/05/04 05:29:53;;;;;;;18.90;13.03;;;10.30;99.90;;;;;;5047984;28;20775;-76
2023/05/04 05:32:19;;;;;;;31.73;19.67;;;10.60;99.90;;;;;;5049213;28;20431;-75
2023/05/04 05:34:44;;;;;;;41.00;25.60;;;10.80;99.90;;;;;;5047111;28;20188;-75
2023/05/04 05:37:10;;;;;;;40.73;25.70;;;10.90;99.90;;;;;;5046807;28;20563;-76
2023/05/04 05:39:36;;;;;;;26.13;17.07;;;11.20;99.90;;;;;;5030286;28;20724;-75
2023/05/04 05:42:02;;;;;;;24.77;17.50;;;11.20;99.90;;;;;;5048066;28;20190;-75
2023/05/04 05:44:28;;;;;;;24.57;17.70;;;11.30;99.90;;;;;;5048329;28;20220;-76
2023/05/04 05:46:54;;;;;;;23.10;17.13;;;11.60;99.90;;;;;;5048147;28;20430;-74
2023/05/04 05:49:20;;;;;;;27.73;17.00;;;11.60;99.90;;;;;;5047868;28;20205;-76
2023/05/04 05:51:46;;;;;;;32.93;15.27;;;11.70;99.90;;;;;;5046570;28;20922;-76
2023/05/04 05:54:12;;;;;;;18.70;13.17;;;12.00;99.90;;;;;;5046267;28;20688;-76
2023/05/04 05:56:38;;;;;;;15.50;12.63;;;12.20;99.90;;;;;;5048176;28;20465;-76
2023/05/04 05:59:03;;;;;;;17.53;13.23;;;12.40;99.90;;;;;;5046406;28;20215;-76
2023/05/04 06:01:29;;;;;;;20.50;13.10;;;12.60;99.90;;;;;;5030378;28;20194;-75
2023/05/04 06:03:54;;;;;;;19.73;13.30;;;12.80;99.90;;;;;;5046321;28;20273;-76
2023/05/04 06:06:20;;;;;;;26.80;13.47;;;13.00;99.90;;;;;;5029995;28;20190;-76
2023/05/04 06:08:46;;;;;;;15.23;11.50;;;13.00;99.90;;;;;;5046191;28;20207;-76
2023/05/04 06:11:11;;;;;;;15.47;10.40;;;13.10;99.90;;;;;;5046702;28;20202;-76
2023/05/04 06:13:37;;;;;;;14.17;12.33;;;13.30;99.90;;;;;;5048890;28;20201;-76
2023/05/04 06:16:03;;;;;;;19.33;12.63;;;13.40;99.90;;;;;;5047136;28;20656;-76
2023/05/04 06:18:29;;;;;;;17.30;12.60;;;13.60;99.90;;;;;;5048025;28;20465;-76
2023/05/04 06:20:58;;;;;;;16.90;11.50;;;13.70;99.90;;;;;;5046553;28;20433;-75
2023/05/04 06:23:26;;;;;;;14.93;10.20;;;13.90;99.90;;;;;;5047814;28;20194;-76
2023/05/04 06:25:51;;;;;;;15.13;12.07;;;14.00;99.90;;;;;;5047814;28;20480;-75
2023/05/04 06:28:17;;;;;;;11.00;9.87;;;14.10;99.90;;;;;;5047849;28;20443;-76
2023/05/04 06:30:43;;;;;;;15.43;10.67;;;14.30;99.90;;;;;;5047924;28;20183;-78
2023/05/04 06:33:09;;;;;;;17.33;9.90;;;14.40;99.90;;;;;;5048280;28;20953;-76
2023/05/04 06:35:35;;;;;;;11.83;8.83;;;14.50;99.90;;;;;;5052146;28;20511;-76
2023/05/04 06:38:00;;;;;;;12.20;9.63;;;14.70;99.90;;;;;;5051640;28;20221;-76
2023/05/04 06:40:26;;;;;;;12.70;10.27;;;14.80;99.90;;;;;;5052596;28;20233;-75
2023/05/04 06:42:51;;;;;;;13.13;10.00;;;15.00;99.90;;;;;;5054054;28;20186;-76
2023/05/04 06:45:17;;;;;;;16.17;10.10;;;15.00;99.90;;;;;;5053041;28;20700;-76
2023/05/04 06:47:43;;;;;;;13.23;8.63;;;15.10;99.90;;;;;;5052487;28;20207;-76
2023/05/04 06:50:10;;;;;;;11.93;9.70;;;15.20;99.90;;;;;;5051674;28;20272;-76
2023/05/04 06:52:41;;;;;;;19.93;10.17;;;15.30;99.90;;;;;;5051565;28;20176;-75
2023/05/04 06:55:06;;;;;;;9.63;8.23;;;15.40;99.90;;;;;;5051959;28;20829;-75
2023/05/04 06:57:32;;;;;;;10.50;8.93;;;15.60;99.90;;;;;;5051908;28;20438;-75
2023/05/04 06:59:58;;;;;;;13.17;8.63;;;15.60;99.90;;;;;;5053140;28;20521;-77
2023/05/04 07:02:24;;;;;;;10.17;9.07;;;15.70;99.90;;;;;;5051903;28;20439;-75
2023/05/04 07:04:51;;;;;;;15.43;10.37;;;15.70;99.90;;;;;;5052127;28;20685;-76
2023/05/04 07:07:17;;;;;;;11.60;9.70;;;15.70;99.90;;;;;;5052057;28;20649;-76
2023/05/04 07:09:43;;;;;;;13.87;8.77;;;15.80;99.90;;;;;;5050940;28;20431;-76
2023/05/04 07:12:08;;;;;;;11.47;9.20;;;15.90;99.90;;;;;;5052114;28;20429;-76
2023/05/04 07:14:34;;;;;;;13.50;8.90;;;15.90;99.90;;;;;;5052329;28;20509;-75
2023/05/04 07:17:00;;;;;;;12.40;8.93;;;16.00;99.90;;;;;;5052938;28;20594;-76
2023/05/04 07:19:26;;;;;;;10.43;9.33;;;16.00;99.90;;;;;;5054235;28;20216;-76
2023/05/04 07:21:52;;;;;;;22.50;8.70;;;16.00;99.90;;;;;;5052808;28;20728;-76
2023/05/04 07:24:17;;;;;;;10.07;8.30;;;16.10;99.90;;;;;;5052750;28;20458;-76
2023/05/04 07:26:43;;;;;;;10.60;8.43;;;16.10;99.90;;;;;;5051959;28;20203;-77
2023/05/04 07:29:09;;;;;;;9.70;7.40;;;16.10;99.90;;;;;;5052858;28;20685;-77
2023/05/04 07:31:35;;;;;;;10.73;9.23;;;16.20;99.90;;;;;;5052501;28;20185;-76
2023/05/04 07:34:00;;;;;;;12.27;8.57;;;16.30;99.90;;;;;;5052066;28;20204;-75
2023/05/04 07:36:26;;;;;;;11.83;9.53;;;16.40;99.90;;;;;;5034133;28;20869;-77
2023/05/04 07:38:52;;;;;;;13.00;8.10;;;16.50;99.90;;;;;;5051863;28;20298;-77
2023/05/04 07:41:19;;;;;;;9.37;8.40;;;16.50;99.90;;;;;;5050097;28;20420;-75
2023/05/04 07:43:45;;;;;;;9.47;7.90;;;16.60;99.90;;;;;;5050108;28;20932;-76
2023/05/04 07:46:11;;;;;;;11.27;8.87;;;16.70;99.90;;;;;;5051280;28;20463;-76
2023/05/04 07:48:37;;;;;;;13.97;7.83;;;16.80;99.90;;;;;;5051188;28;20530;-76
2023/05/04 07:51:03;;;;;;;10.10;7.50;;;17.00;99.90;;;;;;5050870;28;20544;-75
2023/05/04 07:53:29;;;;;;;9.03;6.70;;;17.20;99.90;;;;;;5032722;28;20426;-74
2023/05/04 07:55:56;;;;;;;17.67;8.40;;;17.50;99.90;;;;;;5049511;28;20195;-75
2023/05/04 07:58:22;;;;;;;8.40;7.50;;;17.50;99.90;;;;;;5050750;28;20208;-75
2023/05/04 08:00:48;;;;;;;8.10;7.00;;;17.60;99.90;;;;;;5050759;28;20432;-75
2023/05/04 08:03:14;;;;;;;6.83;5.77;;;17.60;99.90;;;;;;5048579;28;20429;-76
2023/05/04 08:05:40;;;;;;;6.80;6.00;;;17.70;97.70;;;;;;5050521;28;20318;-76
2023/05/04 08:08:07;;;;;;;4.77;4.27;;;17.80;97.20;;;;;;5050511;28;20433;-75
2023/05/04 08:10:35;;;;;;;6.73;3.87;;;17.80;88.90;;;;;;5048769;28;20234;-74
2023/05/04 08:13:01;;;;;;;4.57;4.03;;;18.10;82.40;;;;;;5050437;28;21033;-76
2023/05/04 08:15:28;;;;;;;5.70;3.77;;;18.20;82.20;;;;;;5050467;28;20454;-75
2023/05/04 08:17:53;;;;;;;3.73;3.43;;;18.20;80.20;;;;;;5050387;28;20207;-77
2023/05/04 08:20:19;;;;;;;5.93;4.20;;;18.30;79.10;;;;;;5048821;28;20435;-75
2023/05/04 08:22:45;;;;;;;14.77;4.13;;;18.50;81.80;;;;;;5032533;28;20199;-76
2023/05/04 08:25:11;;;;;;;3.90;3.50;;;18.80;80.00;;;;;;5048802;28;20431;-75
2023/05/04 08:27:37;;;;;;;7.87;3.73;;;19.00;77.80;;;;;;5049508;28;20561;-77
2023/05/04 08:30:03;;;;;;;4.03;3.60;;;18.90;74.30;;;;;;5051103;28;20274;-76
2023/05/04 08:32:29;;;;;;;4.47;3.53;;;19.00;75.90;;;;;;5050772;28;20799;-76
2023/05/04 08:34:55;;;;;;;6.40;3.33;;;19.20;75.60;;;;;;5048765;28;20443;-76
2023/05/04 08:37:20;;;;;;;3.87;3.47;;;19.30;73.10;;;;;;5049932;28;20181;-76
2023/05/04 08:39:46;;;;;;;3.77;3.47;;;19.60;74.70;;;;;;5050180;28;20188;-74
2023/05/04 08:42:12;;;;;;;7.40;3.50;;;19.40;70.60;;;;;;5050259;28;20207;-76
2023/05/04 08:44:37;;;;;;;5.23;3.47;;;19.70;73.80;;;;;;5050702;28;20215;-76
2023/05/04 08:47:03;;;;;;;3.60;3.00;;;19.50;69.30;;;;;;5051356;28;20190;-77
2023/05/04 08:49:29;;;;;;;4.67;3.10;;;19.50;65.00;;;;;;5051056;28;20201;-77
2023/05/04 08:51:56;;;;;;;3.33;2.93;;;19.40;66.60;;;;;;5050507;28;20178;-77
2023/05/04 08:54:22;;;;;;;3.33;3.03;;;19.80;67.30;;;;;;5050010;28;20521;-75
2023/05/04 08:56:51;;;;;;;4.50;3.70;;;19.90;62.60;;;;;;5049479;28;20419;-76
2023/05/04 08:59:26;;;;;;;3.80;2.63;;;20.10;62.70;;;;;;5048687;28;20513;-76
2023/05/04 09:01:56;;;;;;;6.07;3.67;;;19.90;62.20;;;;;;5048782;28;20816;-76
2023/05/04 09:04:22;;;;;;;4.00;3.50;;;19.90;60.00;;;;;;5049863;28;20567;-77
2023/05/04 09:06:49;;;;;;;3.60;3.20;;;19.80;58.60;;;;;;5049657;28;20419;-75
2023/05/04 09:09:15;;;;;;;3.13;2.83;;;20.10;59.30;;;;;;5049269;28;20430;-75
2023/05/04 09:11:40;;;;;;;5.70;3.53;;;20.30;57.90;;;;;;5049387;28;20420;-74
2023/05/04 09:14:06;;;;;;;3.03;2.73;;;20.50;58.20;;;;;;5031347;28;20718;-75
2023/05/04 09:16:38;;;;;;;3.43;3.13;;;20.80;59.90;;;;;;5049242;28;20174;-76
2023/05/04 09:19:15;;;;;;;5.00;3.30;;;20.90;57.20;;;;;;5049515;28;20208;-75
2023/05/04 09:21:42;;;;;;;4.23;3.20;;;21.30;57.30;;;;;;5047275;28;20424;-76
2023/05/04 09:24:08;;;;;;;3.30;3.00;;;21.60;56.10;;;;;;5048481;28;20432;-75
2023/05/04 09:26:34;;;;;;;3.23;2.93;;;22.00;55.10;;;;;;5046559;28;20448;-76
2023/05/04 09:29:12;;;;;;;4.90;3.43;;;22.00;53.70;;;;;;5047103;28;20220;-75
2023/05/04 09:31:57;;;;;;;11.27;3.73;;;22.00;52.50;;;;;;5048657;28;20418;-77
2023/05/04 09:34:22;;;;;;;7.00;2.90;;;22.20;52.90;;;;;;5046950;28;20954;-76
2023/05/04 09:37:02;;;;;;;4.63;3.10;;;22.40;49.90;;;;;;5048102;28;20472;-75
2023/05/04 09:39:28;;;;;;;3.43;2.67;;;22.60;49.40;;;;;;5046813;28;20263;-76
2023/05/04 09:41:55;;;;;;;4.63;2.83;;;22.80;48.50;;;;;;5048676;28;20838;-77
2023/05/04 09:44:22;;;;;;;3.10;2.53;;;23.00;50.50;;;;;;5047404;28;20498;-76
2023/05/04 09:46:55;;;;;;;7.43;2.63;;;23.00;50.40;;;;;;5048510;28;20469;-76
2023/05/04 09:49:35;;;;;;;2.97;2.77;;;23.30;49.20;;;;;;5047119;28;20449;-76
2023/05/04 09:52:03;;;;;;;4.80;2.60;;;23.10;47.40;;;;;;5048472;28;20421;-77
2023/05/04 09:54:33;;;;;;;8.13;2.70;;;22.30;46.10;;;;;;5048085;28;21216;-75
2023/05/04 09:57:19;;;;;;;2.70;2.50;;;23.30;50.20;;;;;;5047762;28;20831;-77
2023/05/04 09:59:45;;;;;;;4.00;2.30;;;24.20;47.60;;;;;;5046835;28;20408;-76
2023/05/04 10:02:12;;;;;;;3.90;2.87;;;23.90;46.20;;;;;;5048217;28;21247;-76
2023/05/04 10:04:38;;;;;;;3.10;2.80;;;24.10;46.00;;;;;;5048101;28;20950;-74
2023/05/04 10:07:05;;;;;;;4.93;2.83;;;24.40;46.90;;;;;;5047064;28;20422;-75
2023/05/04 10:09:32;;;;;;;4.30;2.80;;;24.60;47.30;;;;;;5048032;28;21070;-76
2023/05/04 10:12:04;;;;;;;2.90;2.47;;;24.50;45.50;;;;;;5047415;28;20416;-76
2023/05/04 10:14:34;;;;;;;3.23;2.70;;;23.80;42.80;;;;;;5047680;28;20426;-75
2023/05/04 10:17:09;;;;;;;3.27;2.83;;;24.20;43.30;;;;;;5047702;28;20462;-76
2023/05/04 10:19:40;;;;;;;3.50;2.80;;;24.50;43.10;;;;;;5046350;28;20772;-75
2023/05/04 10:22:13;;;;;;;2.80;2.60;;;24.70;43.50;;;;;;5047800;28;20422;-75
2023/05/04 10:25:07;;;;;;;7.70;3.27;;;24.30;44.40;;;;;;5048350;28;20465;-75
2023/05/04 10:27:53;;;;;;;3.40;3.10;;;24.60;42.10;;;;;;5046747;28;20514;-76
2023/05/04 10:30:20;;;;;;;3.20;2.90;;;24.90;41.90;;;;;;5047757;28;20415;-75
2023/05/04 10:32:52;;;;;;;7.70;3.60;;;25.10;42.40;;;;;;5047747;28;20419;-76
2023/05/04 10:35:18;;;;;;;3.30;2.30;;;25.00;41.40;;;;;;5047617;28;20819;-75
2023/05/04 10:37:53;;;;;;;9.77;3.00;;;25.00;41.10;;;;;;5047732;28;20519;-76
2023/05/04 10:40:34;;;;;;;4.83;3.43;;;25.60;42.00;;;;;;5047849;28;20426;-75
2023/05/04 10:43:00;;;;;;;3.27;3.07;;;25.60;41.20;;;;;;5048082;28;21244;-77
2023/05/04 10:45:36;;;;;;;3.93;3.63;;;25.60;42.10;;;;;;5048086;28;20467;-75
2023/05/04 10:48:03;;;;;;;3.50;3.20;;;25.30;40.90;;;;;;5045991;28;20322;-76
2023/05/04 10:50:49;;;;;;;5.97;3.80;;;25.30;40.90;;;;;;5047437;28;20843;-76
2023/05/04 10:53:16;;;;;;;6.70;3.90;;;25.20;41.30;;;;;;5047319;28;20495;-76
2023/05/04 10:55:43;;;;;;;2.70;2.50;;;25.40;42.50;;;;;;5046086;28;20428;-76
2023/05/04 10:58:13;;;;;;;7.93;3.43;;;26.00;43.20;;;;;;5047068;28;20829;-75
2023/05/04 11:00:40;;;;;;;4.47;3.40;;;26.30;42.10;;;;;;5047982;28;20509;-77
2023/05/04 11:03:07;;;;;;;5.13;3.40;;;25.70;40.60;;;;;;5047823;28;20452;-76
2023/05/04 11:05:39;;;;;;;6.43;2.60;;;25.60;43.20;;;;;;5045970;28;20522;-77
2023/05/04 11:08:19;;;;;;;3.30;3.10;;;25.40;40.90;;;;;;5047396;28;20433;-75
2023/05/04 11:11:03;;;;;;;3.63;3.33;;;25.30;41.30;;;;;;5047121;28;20415;-76
2023/05/04 11:13:30;;;;;;;3.53;2.90;;;25.60;42.20;;;;;;5047228;28;20500;-76
2023/05/04 11:15:56;;;;;;;4.70;3.70;;;25.70;42.70;;;;;;5047554;28;20495;-76
2023/05/04 11:18:40;;;;;;;3.73;3.37;;;25.50;40.90;;;;;;5030281;28;20479;-76
2023/05/04 11:21:09;;;;;;;4.00;3.43;;;25.50;41.90;;;;;;5051261;28;20209;-76
2023/05/04 11:23:35;;;;;;;3.50;3.20;;;25.90;41.10;;;;;;5051327;28;20419;-76
2023/05/04 11:26:06;;;;;;;4.30;3.60;;;26.20;42.00;;;;;;5051056;28;20479;-76
2023/05/04 11:28:36;;;;;;;2.73;2.53;;;26.50;41.50;;;;;;5051074;28;20439;-77
2023/05/04 11:31:15;;;;;;;3.83;2.97;;;26.60;39.40;;;;;;5051747;28;20416;-77
2023/05/04 11:33:48;;;;;;;2.70;2.50;;;26.50;39.40;;;;;;5049690;28;20430;-77
2023/05/04 11:36:14;;;;;;;6.27;2.90;;;26.50;39.10;;;;;;5051145;28;20536;-77
2023/05/04 11:38:40;;;;;;;4.27;3.67;;;26.50;38.50;;;;;;5051109;28;21091;-77
2023/05/04 11:41:07;;;;;;;3.20;3.00;;;26.70;38.70;;;;;;5050897;28;20422;-76
2023/05/04 11:43:33;;;;;;;8.23;4.87;;;26.50;39.10;;;;;;5050190;28;20422;-76
2023/05/04 11:46:03;;;;;;;7.50;4.30;;;26.30;40.00;;;;;;5050527;28;20459;-76
2023/05/04 11:48:31;;;;;;;3.83;3.40;;;26.40;40.10;;;;;;5048757;28;20450;-76
2023/05/04 11:50:57;;;;;;;4.43;4.00;;;26.60;40.00;;;;;;5050968;28;20418;-76
2023/05/04 11:53:23;;;;;;;7.90;3.90;;;26.50;40.00;;;;;;5049075;28;20442;-76
2023/05/04 11:55:49;;;;;;;4.27;3.87;;;26.60;40.80;;;;;;5050203;28;20478;-75
2023/05/04 11:58:22;;;;;;;5.00;3.47;;;26.40;39.00;;;;;;5048782;28;20221;-75
2023/05/04 12:00:48;;;;;;;3.90;3.47;;;26.20;39.90;;;;;;5049850;28;20187;-77
2023/05/04 12:03:15;;;;;;;7.33;3.40;;;26.40;41.00;;;;;;5050547;28;20437;-76
2023/05/04 12:05:47;;;;;;;4.83;4.10;;;26.30;40.90;;;;;;5050469;28;20552;-76
2023/05/04 12:08:40;;;;;;;9.73;4.37;;;26.10;40.70;;;;;;5050739;28;20434;-76
2023/05/04 12:11:24;;;;;;;4.50;4.10;;;26.20;41.80;;;;;;5050561;28;20414;-76
2023/05/04 12:14:06;;;;;;;4.00;3.70;;;26.60;41.60;;;;;;5050132;28;20455;-76
2023/05/04 12:16:32;;;;;;;5.23;3.20;;;26.60;40.00;;;;;;5048573;28;20953;-76
2023/05/04 12:19:09;;;;;;;5.87;4.40;;;26.70;42.50;;;;;;5050593;28;20433;-77
2023/05/04 12:21:35;;;;;;;4.43;4.03;;;26.70;40.80;;;;;;5051159;28;20413;-75
2023/05/04 12:24:02;;;;;;;5.70;4.40;;;26.50;42.10;;;;;;5051138;28;20410;-75
2023/05/04 12:26:28;;;;;;;3.20;2.90;;;26.40;41.00;;;;;;5051034;28;20959;-75
2023/05/04 12:28:54;;;;;;;4.10;3.37;;;26.60;41.60;;;;;;5051138;28;20443;-76
2023/05/04 12:31:21;;;;;;;7.80;3.50;;;27.00;42.40;;;;;;5050291;28;20418;-75
2023/05/04 12:33:48;;;;;;;5.10;4.60;;;27.10;40.20;;;;;;5050939;28;20226;-76
2023/05/04 12:36:14;;;;;;;5.10;4.60;;;26.90;40.90;;;;;;5050815;28;20430;-77
2023/05/04 12:38:40;;;;;;;7.90;3.90;;;27.10;41.20;;;;;;5050745;28;20525;-76
2023/05/04 12:41:09;;;;;;;4.80;4.40;;;27.20;42.50;;;;;;5051173;28;20836;-77